Time;durP1;ratioP1;P1;durP2;ratioP2;P2;SDS_P1;SDS_P2;PMS_P1;PMS_P2;Temp;Humidity;BMP_temperature;BMP_pressure;BME280_temperature;BME280_humidity;BME280_pressure;Samples;Min_cycle;Max_cycle;Signal;HPM_P1;HPM_P2
2024/05/03 00:04:44;;;;;;;28.98;13.27;;;;;;;13.33;100.00;100153.69;10909545;26;20011;-16
2024/05/03 00:09:48;;;;;;;24.30;12.02;;;;;;;13.30;100.00;100144.38;10905797;26;20011;-17
2024/05/03 00:14:52;;;;;;;26.83;12.25;;;;;;;13.24;100.00;100151.16;10903201;26;20011;-17
2024/05/03 00:19:58;;;;;;;24.92;10.93;;;;;;;13.26;100.00;100159.69;10908500;26;20009;-17
2024/05/03 00:25:02;;;;;;;27.17;11.43;;;;;;;13.25;100.00;100156.22;10904110;26;20011;-17
2024/05/03 00:30:07;;;;;;;25.88;11.82;;;;;;;13.24;100.00;100157.34;10904415;26;21358;-16
2024/05/03 00:35:13;;;;;;;27.77;11.63;;;;;;;13.23;100.00;100153.06;10905359;26;20008;-18
2024/05/03 00:40:17;;;;;;;26.20;10.55;;;;;;;13.09;100.00;100147.34;10882697;26;20127;-17
2024/05/03 00:45:21;;;;;;;24.92;9.82;;;;;;;13.14;100.00;100157.09;10844437;26;20796;-17
2024/05/03 00:50:28;;;;;;;25.40;10.75;;;;;;;13.13;100.00;100155.53;10905745;26;20062;-16
2024/05/03 00:55:33;;;;;;;22.83;9.82;;;;;;;13.16;100.00;100160.22;10903133;26;20015;-16
2024/05/03 01:00:40;;;;;;;21.77;9.93;;;;;;;13.12;100.00;100167.44;10899521;26;20011;-17
2024/05/03 01:05:47;;;;;;;24.35;9.70;;;;;;;12.99;100.00;100161.38;10905671;26;20542;-16
2024/05/03 01:10:51;;;;;;;25.05;10.70;;;;;;;13.04;100.00;100154.94;10898113;26;24027;-16
2024/05/03 01:15:55;;;;;;;;;;;;;;;12.99;100.00;100155.97;10896288;26;20094;-16
2024/05/03 01:21:02;;;;;;;24.77;10.43;;;;;;;12.99;100.00;100172.16;10899196;26;19934;-15
2024/05/03 01:26:08;;;;;;;21.73;10.40;;;;;;;12.99;100.00;100177.53;10897691;26;20508;-16
2024/05/03 01:31:12;;;;;;;23.77;9.75;;;;;;;12.97;100.00;100182.50;10895512;26;20084;-16
2024/05/03 01:36:16;;;;;;;23.83;10.57;;;;;;;12.97;100.00;100176.31;10894215;26;20023;-19
2024/05/03 01:41:22;;;;;;;24.55;10.65;;;;;;;12.91;100.00;100165.00;10892709;26;20046;-19
2024/05/03 01:46:26;;;;;;;21.90;10.07;;;;;;;12.92;100.00;100180.84;10898488;26;20016;-19
2024/05/03 01:51:30;;;;;;;24.48;10.68;;;;;;;12.92;100.00;100177.38;10902407;26;20016;-20
2024/05/03 01:56:37;;;;;;;24.13;10.00;;;;;;;12.79;100.00;100186.66;10902356;26;20049;-16
2024/05/03 02:01:41;;;;;;;26.52;10.15;;;;;;;12.82;100.00;100186.75;10899492;26;20130;-15
2024/05/03 02:06:46;;;;;;;22.27;8.98;;;;;;;12.74;100.00;100192.31;10902922;26;20097;-16
2024/05/03 02:11:52;;;;;;;20.17;9.00;;;;;;;12.78;100.00;100204.75;10902061;26;20008;-16
2024/05/03 02:16:56;;;;;;;24.10;9.30;;;;;;;12.87;100.00;100207.28;10899693;26;20361;-16
2024/05/03 02:22:00;;;;;;;20.55;9.27;;;;;;;12.74;100.00;100203.09;10903497;26;20067;-16
2024/05/03 02:27:07;;;;;;;27.05;10.05;;;;;;;12.69;100.00;100204.13;10910228;26;20036;-17
2024/05/03 02:32:11;;;;;;;22.58;9.40;;;;;;;12.69;100.00;100208.72;10908753;26;20064;-17
2024/05/03 02:37:14;;;;;;;23.35;10.07;;;;;;;12.68;100.00;100210.63;10908620;26;20632;-17
2024/05/03 02:42:21;;;;;;;25.75;10.65;;;;;;;12.69;100.00;100214.91;10905761;26;20013;-17
2024/05/03 02:47:27;;;;;;;22.95;9.05;;;;;;;12.63;100.00;100217.03;10907096;26;20561;-15
2024/05/03 02:52:30;;;;;;;19.65;8.43;;;;;;;12.54;100.00;100226.38;10902950;26;20204;-16
2024/05/03 02:57:37;;;;;;;21.02;9.25;;;;;;;12.62;100.00;100233.53;10905999;26;20012;-15
2024/05/03 03:02:41;;;;;;;22.13;9.52;;;;;;;12.60;100.00;100238.47;10889505;26;20555;-16
2024/05/03 03:07:45;;;;;;;23.83;10.15;;;;;;;12.58;100.00;100238.81;10904515;26;20027;-16
2024/05/03 03:12:51;;;;;;;23.20;9.57;;;;;;;12.58;100.00;100251.50;10898155;26;20501;-17
2024/05/03 03:17:57;;;;;;;21.98;9.38;;;;;;;12.62;100.00;100247.00;10882104;26;20019;-16
2024/05/03 03:23:01;;;;;;;20.63;9.20;;;;;;;12.59;100.00;100261.94;10887620;26;22254;-15
2024/05/03 03:28:07;;;;;;;21.27;8.88;;;;;;;12.61;100.00;100264.31;10889410;26;20011;-16
2024/05/03 03:33:11;;;;;;;21.60;9.25;;;;;;;12.53;100.00;100273.31;10904854;26;20018;-15
2024/05/03 03:38:15;;;;;;;18.02;8.23;;;;;;;12.54;100.00;100282.97;10925666;26;20512;-15
2024/05/03 03:43:21;;;;;;;16.05;7.75;;;;;;;12.52;100.00;100272.53;10903828;26;20403;-16
2024/05/03 03:48:25;;;;;;;14.63;7.20;;;;;;;12.55;100.00;100273.75;10901172;26;20144;-15
2024/05/03 03:53:29;;;;;;;16.40;7.35;;;;;;;12.47;100.00;100285.47;10901414;26;20704;-15
2024/05/03 03:58:35;;;;;;;15.50;6.90;;;;;;;12.46;100.00;100289.28;10905440;26;20062;-16
2024/05/03 04:03:39;;;;;;;16.00;6.72;;;;;;;12.43;100.00;100282.66;10912115;26;20031;-17
2024/05/03 04:08:46;;;;;;;14.43;6.40;;;;;;;12.49;100.00;100277.81;10898910;26;20019;-17
2024/05/03 04:13:53;;;;;;;12.38;6.20;;;;;;;12.41;100.00;100286.81;10884518;26;20196;-16
2024/05/03 04:18:56;;;;;;;12.23;5.82;;;;;;;12.33;100.00;100293.13;10901783;26;20011;-16
2024/05/03 04:24:00;;;;;;;11.60;5.40;;;;;;;12.31;100.00;100301.53;10897783;26;22898;-16
2024/05/03 04:29:07;;;;;;;12.27;5.68;;;;;;;12.37;100.00;100305.56;10898362;26;20026;-16
2024/05/03 04:34:10;;;;;;;11.43;5.43;;;;;;;12.34;100.00;100313.56;10899382;26;20033;-15
2024/05/03 04:39:14;;;;;;;10.13;5.13;;;;;;;12.35;100.00;100323.19;10900869;26;20030;-16
2024/05/03 04:44:20;;;;;;;10.25;4.82;;;;;;;12.33;100.00;100334.31;10896178;26;20011;-17
2024/05/03 04:49:24;;;;;;;9.02;5.03;;;;;;;12.27;100.00;100338.31;10905274;26;20016;-16
2024/05/03 04:54:28;;;;;;;10.07;5.00;;;;;;;12.40;100.00;100352.59;10912329;26;20067;-16
2024/05/03 04:59:35;;;;;;;9.70;5.28;;;;;;;12.35;100.00;100353.59;10901670;26;20202;-16
2024/05/03 05:04:38;;;;;;;11.07;5.50;;;;;;;12.28;100.00;100353.41;10908798;26;20180;-17
2024/05/03 05:09:44;;;;;;;10.43;5.25;;;;;;;12.22;100.00;100357.41;10890013;26;20063;-17
2024/05/03 05:14:51;;;;;;;10.10;5.70;;;;;;;12.18;100.00;100356.50;10888720;26;20569;-16
2024/05/03 05:19:54;;;;;;;10.10;5.70;;;;;;;12.17;100.00;100369.19;10888107;26;20781;-16
2024/05/03 05:24:58;;;;;;;11.70;6.28;;;;;;;12.10;100.00;100376.25;10883247;26;20149;-17
2024/05/03 05:30:05;;;;;;;10.07;5.57;;;;;;;12.08;100.00;100384.69;10863627;26;20012;-16
2024/05/03 05:35:09;;;;;;;11.48;6.32;;;;;;;12.13;100.00;100399.81;10892067;26;20106;-16
2024/05/03 05:40:13;;;;;;;11.52;5.78;;;;;;;12.10;100.00;100408.56;10884963;26;20696;-17
2024/05/03 05:45:20;;;;;;;11.23;5.45;;;;;;;11.99;100.00;100414.41;10882395;26;20024;-17
2024/05/03 05:50:24;;;;;;;9.15;4.60;;;;;;;12.02;100.00;100414.84;10884871;26;20067;-16
2024/05/03 05:55:27;;;;;;;9.95;4.82;;;;;;;11.98;100.00;100428.97;10892637;26;20483;-15
2024/05/03 06:00:34;;;;;;;7.75;4.55;;;;;;;11.94;100.00;100432.66;10899323;26;20027;-15
2024/05/03 06:05:38;;;;;;;11.38;5.13;;;;;;;11.83;100.00;100447.69;10896033;26;20027;-15
2024/05/03 06:10:42;;;;;;;6.80;4.03;;;;;;;11.86;100.00;100455.09;10889432;26;20027;-18
2024/05/03 06:15:48;;;;;;;;;;;;;;;11.77;100.00;100468.63;10891883;26;20027;-17
2024/05/03 06:20:52;;;;;;;6.90;4.10;;;;;;;11.81;100.00;100474.91;10885219;26;19933;-18
2024/05/03 06:25:56;;;;;;;7.20;4.30;;;;;;;11.78;100.00;100483.66;10857083;26;20123;-16
2024/05/03 06:31:03;;;;;;;7.13;4.00;;;;;;;11.69;100.00;100482.94;10887752;26;20110;-16
2024/05/03 06:36:07;;;;;;;6.07;3.63;;;;;;;11.70;100.00;100495.25;10889948;26;20016;-16
2024/05/03 06:41:11;;;;;;;4.88;3.22;;;;;;;11.66;100.00;100508.59;10891931;26;22122;-16
2024/05/03 06:46:17;;;;;;;5.38;3.20;;;;;;;11.72;100.00;100517.25;10890726;26;20016;-17
2024/05/03 06:51:21;;;;;;;4.88;2.53;;;;;;;11.58;100.00;100519.44;10893917;26;24442;-15
2024/05/03 06:56:25;;;;;;;4.85;2.53;;;;;;;11.45;100.00;100528.56;10891159;26;20012;-16
2024/05/03 07:01:31;;;;;;;5.32;2.60;;;;;;;11.44;100.00;100527.78;10889693;26;20012;-18
2024/05/03 07:06:35;;;;;;;3.78;2.20;;;;;;;11.43;100.00;100539.66;10888025;26;20090;-16
2024/05/03 07:11:39;;;;;;;3.78;2.30;;;;;;;11.49;100.00;100540.25;10881175;26;21110;-18
2024/05/03 07:16:46;;;;;;;3.40;2.03;;;;;;;11.44;100.00;100538.53;10855055;26;20561;-16
2024/05/03 07:21:49;;;;;;;3.75;2.28;;;;;;;11.41;100.00;100541.09;10860570;26;20046;-17
2024/05/03 07:26:53;;;;;;;4.38;1.98;;;;;;;11.41;100.00;100559.91;10888327;26;20012;-16
2024/05/03 07:32:05;;;;;;;4.97;2.00;;;;;;;11.52;100.00;100561.09;10872771;26;20820;-16
2024/05/03 07:37:08;;;;;;;3.72;2.00;;;;;;;11.48;100.00;100566.34;10894108;26;20091;-16
2024/05/03 07:42:12;;;;;;;5.82;2.20;;;;;;;11.46;100.00;100575.84;10893998;26;20956;-17
2024/05/03 07:47:19;;;;;;;5.85;2.05;;;;;;;11.43;100.00;100580.00;10895248;26;21360;-17
2024/05/03 07:52:23;;;;;;;3.95;1.98;;;;;;;11.36;100.00;100595.84;10892168;26;20012;-17
2024/05/03 07:57:26;;;;;;;5.95;1.75;;;;;;;11.27;100.00;100603.19;10890454;26;21865;-16
2024/05/03 08:02:33;;;;;;;4.13;1.80;;;;;;;11.23;100.00;100610.34;10886706;26;20082;-16
2024/05/03 08:07:37;;;;;;;4.30;1.80;;;;;;;11.22;100.00;100623.00;10885226;26;20030;-17
2024/05/03 08:12:44;;;;;;;2.88;1.30;;;;;;;11.04;100.00;100634.94;10897059;26;20059;-15
2024/05/03 08:17:51;;;;;;;4.57;1.40;;;;;;;11.11;100.00;100634.44;10895077;26;20223;-17
2024/05/03 08:22:55;;;;;;;3.50;1.10;;;;;;;11.02;100.00;100637.97;10897864;26;20056;-17
2024/05/03 08:27:59;;;;;;;5.53;1.10;;;;;;;11.08;100.00;100638.56;10898889;26;20919;-16
2024/05/03 08:33:06;;;;;;;5.43;1.27;;;;;;;11.00;99.62;100655.53;10895522;26;22345;-17
2024/05/03 08:38:09;;;;;;;2.45;1.20;;;;;;;11.06;99.95;100661.50;10894833;26;20630;-17
2024/05/03 08:43:25;;;;;;;8.05;1.30;;;;;;;11.15;100.00;100667.63;10893241;26;24573;-16
2024/05/03 08:48:38;;;;;;;5.35;1.58;;;;;;;11.19;100.00;100682.78;10888212;26;20004;-17
2024/05/03 08:53:54;;;;;;;5.20;1.35;;;;;;;11.32;100.00;100684.47;10890767;26;20031;-16
2024/05/03 08:58:59;;;;;;;4.38;1.23;;;;;;;11.24;99.52;100685.28;10823202;26;20057;-17
2024/05/03 09:04:05;;;;;;;6.97;1.65;;;;;;;11.32;100.00;100686.34;10877871;26;24636;-17
2024/05/03 09:09:10;;;;;;;4.88;1.55;;;;;;;11.38;100.00;100690.44;10881825;26;20016;-17
2024/05/03 09:14:14;;;;;;;8.15;1.60;;;;;;;11.43;100.00;100700.22;10878479;26;20908;-17
2024/05/03 09:19:20;;;;;;;2.60;1.35;;;;;;;11.41;100.00;100707.81;10877982;26;20123;-17
2024/05/03 09:24:26;;;;;;;3.45;1.30;;;;;;;11.39;100.00;100710.06;10889865;26;20505;-16
2024/05/03 09:29:29;;;;;;;3.10;1.30;;;;;;;11.46;100.00;100718.41;10890770;26;20023;-19
2024/05/03 09:34:36;;;;;;;2.40;1.40;;;;;;;11.38;100.00;100724.63;10887349;26;20008;-20
2024/05/03 09:39:40;;;;;;;6.00;1.90;;;;;;;11.33;100.00;100731.75;10862663;26;20182;-19
2024/05/03 09:44:44;;;;;;;;;;;;;;;11.31;100.00;100744.72;10862968;26;20016;-20
2024/05/03 09:49:55;;;;;;;4.32;1.50;;;;;;;11.31;100.00;100750.09;10901590;26;20034;-21
2024/05/03 09:55:10;;;;;;;4.63;1.60;;;;;;;11.31;100.00;100755.47;10896857;26;20020;-19
2024/05/03 10:00:19;;;;;;;4.60;1.88;;;;;;;11.28;100.00;100756.13;10887634;26;20024;-19
2024/05/03 10:05:30;;;;;;;4.65;1.55;;;;;;;11.23;100.00;100752.81;10887495;26;20343;-19
2024/05/03 10:10:35;;;;;;;2.63;1.20;;;;;;;11.25;100.00;100778.28;10883930;26;20023;-19
2024/05/03 10:15:41;;;;;;;3.05;1.48;;;;;;;11.35;100.00;100775.25;10901887;26;21150;-19
2024/05/03 10:20:47;;;;;;;5.20;1.42;;;;;;;11.44;100.00;100787.88;10899165;26;21689;-18
2024/05/03 10:25:51;;;;;;;3.15;1.30;;;;;;;11.58;100.00;100789.22;10898645;26;20045;-18
2024/05/03 10:30:56;;;;;;;5.45;1.85;;;;;;;11.58;100.00;100783.84;10890938;26;20077;-18
2024/05/03 10:36:04;;;;;;;4.82;1.85;;;;;;;11.62;99.68;100800.13;10903351;26;20008;-19
2024/05/03 10:41:08;;;;;;;4.53;1.65;;;;;;;11.70;100.00;100801.97;10894323;26;20109;-19
2024/05/03 10:46:12;;;;;;;3.92;1.52;;;;;;;11.68;100.00;100809.59;10901470;26;20106;-19
2024/05/03 10:51:19;;;;;;;2.15;1.20;;;;;;;11.85;99.25;100822.19;10886106;26;20040;-19
2024/05/03 10:56:22;;;;;;;5.28;1.48;;;;;;;12.08;100.00;100826.19;10896068;26;20686;-19
2024/05/03 11:01:26;;;;;;;3.30;1.20;;;;;;;12.21;98.36;100832.44;10868842;26;20098;-19
2024/05/03 11:06:33;;;;;;;5.05;1.40;;;;;;;12.15;95.70;100839.94;10881247;26;21896;-19
2024/05/03 11:11:37;;;;;;;4.03;1.30;;;;;;;12.26;97.32;100851.88;10894915;26;21560;-19
2024/05/03 11:16:41;;;;;;;4.53;1.33;;;;;;;12.18;97.99;100857.34;10891284;26;20048;-20
2024/05/03 11:21:53;;;;;;;4.15;1.63;;;;;;;12.15;97.24;100855.28;10878259;26;20024;-20
2024/05/03 11:27:03;;;;;;;3.25;1.50;;;;;;;12.26;97.41;100876.13;10858592;26;20028;-17
2024/05/03 11:32:07;;;;;;;5.97;1.75;;;;;;;12.18;96.78;100879.66;10870523;26;23756;-19
2024/05/03 11:37:15;;;;;;;5.85;1.70;;;;;;;12.21;96.92;100881.72;10862078;26;20011;-18
2024/05/03 11:42:19;;;;;;;4.57;1.92;;;;;;;12.31;97.52;100896.72;10854941;26;20461;-19
2024/05/03 11:47:23;;;;;;;3.25;1.70;;;;;;;12.02;97.52;100896.69;10858991;26;20023;-19
2024/05/03 11:52:30;;;;;;;5.57;2.00;;;;;;;12.24;98.48;100891.03;10881678;26;20012;-19
2024/05/03 11:57:33;;;;;;;3.55;1.60;;;;;;;12.33;97.55;100899.09;10893757;26;23734;-19
2024/05/03 12:02:37;;;;;;;5.20;1.70;;;;;;;12.24;94.00;100904.50;10896338;26;20027;-19
2024/05/03 12:07:44;;;;;;;5.50;1.55;;;;;;;12.50;97.72;100915.16;10892736;26;20032;-19
2024/05/03 12:12:47;;;;;;;4.13;1.75;;;;;;;12.21;96.58;100918.63;10899420;26;20467;-19
2024/05/03 12:17:51;;;;;;;3.38;1.20;;;;;;;12.20;95.07;100927.81;10898508;26;20027;-19
2024/05/03 12:22:58;;;;;;;5.30;1.60;;;;;;;12.33;94.84;100931.41;10900363;26;20613;-18
2024/05/03 12:28:01;;;;;;;5.72;1.45;;;;;;;12.34;95.10;100946.47;10888464;26;22230;-19
2024/05/03 12:33:05;;;;;;;3.47;1.48;;;;;;;12.22;93.16;100944.44;10896306;26;21904;-19
2024/05/03 12:38:13;;;;;;;4.65;1.30;;;;;;;12.49;94.67;100943.22;10894606;26;25521;-19
2024/05/03 12:43:16;;;;;;;5.30;1.25;;;;;;;13.01;96.44;100940.97;10898269;26;20011;-19
2024/05/03 12:48:20;;;;;;;6.43;1.27;;;;;;;12.91;91.37;100946.75;10888523;26;20117;-20
2024/05/03 12:53:27;;;;;;;3.65;1.33;;;;;;;13.24;93.53;100960.28;10897260;26;20156;-19
2024/05/03 12:58:32;;;;;;;2.30;1.23;;;;;;;13.17;91.49;100966.22;10867720;26;21378;-16
2024/05/03 13:03:36;;;;;;;2.42;1.30;;;;;;;13.42;90.66;100964.41;10880264;26;20012;-15
2024/05/03 13:08:42;;;;;;;3.63;1.27;;;;;;;13.37;90.42;100969.22;10888991;26;20011;-15
2024/05/03 13:13:46;;;;;;;2.97;1.42;;;;;;;13.11;89.86;100977.53;10862261;26;20055;-17
2024/05/03 13:18:50;;;;;;;3.22;1.13;;;;;;;13.37;89.47;100986.22;10881047;26;20023;-17
2024/05/03 13:23:56;;;;;;;6.55;1.50;;;;;;;13.30;90.90;100991.34;10880438;26;20035;-15
2024/05/03 13:29:01;;;;;;;3.17;1.40;;;;;;;13.23;89.96;100996.47;10886977;26;20026;-17
2024/05/03 13:34:05;;;;;;;3.90;1.50;;;;;;;13.40;91.89;101009.81;10891985;26;20545;-17
2024/05/03 13:39:11;;;;;;;4.47;1.77;;;;;;;13.54;90.66;101010.38;10891668;26;20471;-16
2024/05/03 13:44:15;;;;;;;5.00;1.70;;;;;;;13.78;92.35;101012.38;10876305;26;20024;-18
2024/05/03 13:49:19;;;;;;;3.60;1.95;;;;;;;13.89;89.78;101013.53;10885364;26;20031;-17
2024/05/03 13:54:25;;;;;;;5.72;2.30;;;;;;;13.88;88.90;101014.66;10894092;26;20557;-17
2024/05/03 13:59:29;;;;;;;3.85;1.60;;;;;;;14.29;90.49;101017.56;10912423;26;20088;-17
2024/05/03 14:04:33;;;;;;;3.63;1.80;;;;;;;14.41;86.10;101031.09;10907625;26;20589;-17
2024/05/03 14:09:40;;;;;;;;;;;;;;;14.47;84.81;101027.06;10892348;26;25158;-17
2024/05/03 14:14:44;;;;;;;3.33;1.67;;;;;;;14.45;86.94;101030.09;10916678;26;19940;-17
2024/05/03 14:19:48;;;;;;;3.40;1.38;;;;;;;14.62;83.96;101037.19;10910071;26;20572;-17
2024/05/03 14:24:54;;;;;;;5.22;1.85;;;;;;;14.85;85.21;101037.50;10897171;26;20031;-16
2024/05/03 14:29:58;;;;;;;4.95;1.90;;;;;;;14.73;85.41;101043.72;10914265;26;24442;-17
2024/05/03 14:35:02;;;;;;;4.28;1.67;;;;;;;14.40;85.07;101049.22;10907780;26;20461;-16
2024/05/03 14:40:10;;;;;;;7.18;1.50;;;;;;;14.27;85.02;101060.31;10901427;26;20012;-18
2024/05/03 14:45:14;;;;;;;6.20;1.88;;;;;;;14.11;86.70;101058.28;10909891;26;20011;-17
2024/05/03 14:50:18;;;;;;;5.32;1.40;;;;;;;13.98;86.95;101062.06;10880494;26;20026;-17
2024/05/03 14:55:24;;;;;;;4.70;1.38;;;;;;;13.87;87.34;101071.69;10894769;26;20030;-17
2024/05/03 15:00:28;;;;;;;5.05;1.35;;;;;;;13.88;86.51;101075.97;10903582;26;20169;-17
2024/05/03 15:05:32;;;;;;;4.97;1.42;;;;;;;13.77;85.75;101069.41;10887912;26;22855;-20
2024/05/03 15:10:38;;;;;;;3.95;1.30;;;;;;;13.77;88.76;101074.81;10913849;26;20016;-20
2024/05/03 15:15:42;;;;;;;4.80;1.70;;;;;;;13.82;85.28;101078.09;10909594;26;20012;-20
2024/05/03 15:20:46;;;;;;;5.35;1.52;;;;;;;13.84;87.92;101085.88;10909990;26;20112;-20
2024/05/03 15:25:53;;;;;;;5.13;1.50;;;;;;;13.81;88.13;101094.63;10911243;26;20865;-19
2024/05/03 15:30:57;;;;;;;6.43;1.50;;;;;;;13.78;87.89;101093.38;10903935;26;20658;-19
2024/05/03 15:36:00;;;;;;;;;;;;;;;13.72;86.92;101100.09;10885600;26;20596;-20
2024/05/03 15:41:07;;;;;;;5.40;1.40;;;;;;;13.69;87.91;101095.38;10905184;26;21003;-20
2024/05/03 15:46:11;;;;;;;3.90;1.42;;;;;;;14.04;92.51;101085.03;10875546;26;20004;-20
2024/05/03 15:51:15;;;;;;;3.22;1.52;;;;;;;14.27;83.18;101095.44;10878756;26;20636;-19
2024/05/03 15:56:22;;;;;;;6.90;1.70;;;;;;;14.16;89.38;101092.38;10864902;26;21668;-19
2024/05/03 16:01:25;;;;;;;4.47;1.60;;;;;;;14.10;88.67;101094.50;10866421;26;20026;-19
2024/05/03 16:06:29;;;;;;;6.43;1.90;;;;;;;14.10;88.17;101104.53;10903587;26;20022;-22
2024/05/03 16:11:36;;;;;;;4.80;1.52;;;;;;;14.15;87.91;101097.00;10885235;26;20315;-19
2024/05/03 16:16:40;;;;;;;6.07;1.73;;;;;;;14.11;88.82;101089.91;10891093;26;20091;-19
2024/05/03 16:21:44;;;;;;;5.90;1.83;;;;;;;14.02;88.84;101098.09;10898625;26;20011;-20
2024/05/03 16:26:51;;;;;;;6.20;1.88;;;;;;;14.04;87.46;101095.84;10898093;26;20016;-20
2024/05/03 16:31:54;;;;;;;4.22;1.70;;;;;;;14.42;83.72;101089.44;10907007;26;20264;-20
2024/05/03 16:36:58;;;;;;;4.53;1.83;;;;;;;14.51;82.39;101084.72;10894494;26;20109;-20
2024/05/03 16:42:05;;;;;;;4.05;1.73;;;;;;;14.53;82.94;101077.06;10898058;26;20661;-19
2024/05/03 16:47:09;;;;;;;5.60;2.10;;;;;;;14.53;82.89;101080.56;10895202;26;20012;-19
2024/05/03 16:52:12;;;;;;;5.00;1.92;;;;;;;14.33;81.93;101080.59;10899803;26;20020;-20
2024/05/03 16:57:19;;;;;;;7.05;1.98;;;;;;;14.32;83.18;101090.63;10889287;26;20012;-19
2024/05/03 17:02:23;;;;;;;7.70;1.60;;;;;;;14.36;86.05;101096.94;10900654;26;20012;-19
2024/05/03 17:07:26;;;;;;;5.78;1.50;;;;;;;14.50;82.27;101096.66;10902475;26;20011;-19
2024/05/03 17:12:33;;;;;;;6.25;1.65;;;;;;;14.49;83.91;101095.88;10907661;26;20022;-19
2024/05/03 17:17:37;;;;;;;5.85;1.50;;;;;;;14.47;80.93;101097.31;10902746;26;20022;-20
2024/05/03 17:22:41;;;;;;;4.28;1.50;;;;;;;14.45;83.86;101094.97;10895249;26;20031;-20
2024/05/03 17:27:47;;;;;;;5.00;1.60;;;;;;;14.57;83.46;101101.50;10899657;26;20008;-18
2024/05/03 17:32:51;;;;;;;6.22;1.77;;;;;;;14.52;84.13;101106.00;10895214;26;21750;-21
2024/05/03 17:37:55;;;;;;;5.07;1.27;;;;;;;14.53;82.36;101099.47;10901446;26;20162;-20
2024/05/03 17:43:01;;;;;;;3.20;1.40;;;;;;;14.52;81.39;101105.22;10901400;26;20016;-20
2024/05/03 17:48:05;;;;;;;5.30;1.15;;;;;;;14.81;79.38;101107.72;10891670;26;20019;-21
2024/05/03 17:53:09;;;;;;;4.03;1.10;;;;;;;14.85;77.70;101115.94;10882449;26;20008;-20
2024/05/03 17:58:15;;;;;;;2.42;0.80;;;;;;;14.92;77.62;101118.91;10875973;26;20016;-20
2024/05/03 18:03:19;;;;;;;3.90;0.90;;;;;;;14.91;78.22;101127.31;10888920;26;24809;-21
2024/05/03 18:08:23;;;;;;;3.75;1.00;;;;;;;15.01;76.78;101137.72;10897725;26;20015;-19
2024/05/03 18:13:29;;;;;;;2.40;0.80;;;;;;;15.02;78.57;101134.69;10897119;26;20022;-20
2024/05/03 18:18:33;;;;;;;2.20;0.80;;;;;;;14.94;78.00;101132.09;10858753;26;20011;-19
2024/05/03 18:23:37;;;;;;;2.67;0.88;;;;;;;14.79;74.75;101136.22;10875860;26;20012;-20
2024/05/03 18:28:43;;;;;;;5.90;1.38;;;;;;;14.62;77.72;101136.44;10879408;26;20008;-19
2024/05/03 18:33:48;;;;;;;3.95;1.10;;;;;;;14.50;77.32;101143.38;10903273;26;20012;-19
2024/05/03 18:38:51;;;;;;;;;;;;;;;14.40;74.92;101156.53;10913999;26;20064;-18
2024/05/03 18:43:57;;;;;;;3.20;0.90;;;;;;;14.05;78.45;101162.25;10901495;26;19933;-20
2024/05/03 18:49:02;;;;;;;4.70;0.90;;;;;;;13.70;85.25;101160.94;10872156;26;20123;-20
2024/05/03 18:54:06;;;;;;;2.53;0.90;;;;;;;13.29;88.78;101172.41;10897360;26;20011;-19
2024/05/03 18:59:13;;;;;;;5.75;1.02;;;;;;;13.12;89.57;101171.38;10911082;26;21121;-20
2024/05/03 19:04:17;;;;;;;2.72;1.10;;;;;;;12.92;90.07;101174.81;10900790;26;20342;-19
2024/05/03 19:09:21;;;;;;;3.70;0.90;;;;;;;12.71;92.65;101179.31;10889607;26;20027;-20
2024/05/03 19:14:27;;;;;;;2.22;0.98;;;;;;;12.49;94.27;101183.00;10905647;26;20027;-20
2024/05/03 19:19:32;;;;;;;4.00;1.35;;;;;;;12.28;94.58;101177.47;10893660;26;20067;-19
2024/05/03 19:24:35;;;;;;;3.00;0.93;;;;;;;11.98;95.82;101192.69;10877236;26;20386;-19
2024/05/03 19:29:42;;;;;;;4.03;0.95;;;;;;;11.78;98.10;101191.41;10911763;26;22245;-19
2024/05/03 19:34:46;;;;;;;3.78;1.17;;;;;;;11.64;97.96;101196.88;10903860;26;20026;-19
2024/05/03 19:39:50;;;;;;;1.48;0.90;;;;;;;11.42;97.97;101199.69;10904091;26;20027;-20
2024/05/03 19:44:56;;;;;;;;;;;;;;;11.10;98.58;101200.84;10907307;26;21729;-19
2024/05/03 19:50:00;;;;;;;2.47;0.85;;;;;;;10.96;100.00;101198.25;10909581;26;20254;-20
2024/05/03 19:55:04;;;;;;;2.22;1.10;;;;;;;10.86;100.00;101201.19;10906079;26;20023;-19
2024/05/03 20:00:11;;;;;;;1.70;1.20;;;;;;;10.76;100.00;101212.19;10907048;26;20499;-18
2024/05/03 20:05:15;;;;;;;2.72;1.10;;;;;;;10.72;100.00;101211.22;10903809;26;20980;-19
2024/05/03 20:10:19;;;;;;;1.50;1.08;;;;;;;10.52;100.00;101215.19;10909638;26;20032;-19
2024/05/03 20:15:25;;;;;;;1.95;1.05;;;;;;;10.45;100.00;101214.03;10907757;26;20114;-19
2024/05/03 20:20:29;;;;;;;3.45;1.08;;;;;;;10.29;100.00;101206.34;10908354;26;21259;-19
2024/05/03 20:25:33;;;;;;;1.42;1.00;;;;;;;10.21;100.00;101209.75;10902741;26;20016;-19
2024/05/03 20:30:39;;;;;;;2.75;1.30;;;;;;;10.13;100.00;101212.38;10901360;26;23981;-19
2024/05/03 20:35:43;;;;;;;2.20;1.13;;;;;;;9.70;100.00;101212.75;10915709;26;20012;-19
2024/05/03 20:40:47;;;;;;;1.30;0.90;;;;;;;9.54;100.00;101214.16;10911481;26;20082;-20
2024/05/03 20:45:54;;;;;;;1.10;0.73;;;;;;;9.65;100.00;101228.94;10910935;26;20051;-19
2024/05/03 20:50:57;;;;;;;1.45;0.90;;;;;;;9.60;100.00;101226.38;10912126;26;20023;-20
2024/05/03 20:56:01;;;;;;;1.63;1.00;;;;;;;9.53;100.00;101229.44;10911401;26;20795;-20
2024/05/03 21:01:08;;;;;;;3.25;1.40;;;;;;;9.39;100.00;101232.13;10907612;26;20023;-19
2024/05/03 21:06:16;;;;;;;2.65;1.10;;;;;;;9.36;100.00;101232.72;10906065;26;20012;-20
2024/05/03 21:11:20;;;;;;;1.30;0.80;;;;;;;9.22;100.00;101231.94;10907687;26;20023;-20
2024/05/03 21:16:26;;;;;;;1.02;0.80;;;;;;;9.21;100.00;101237.59;10906721;26;20022;-20
2024/05/03 21:21:30;;;;;;;2.13;0.90;;;;;;;9.21;100.00;101232.22;10916457;26;20026;-20
2024/05/03 21:26:35;;;;;;;1.70;1.10;;;;;;;9.12;100.00;101234.78;10906818;26;25266;-19
2024/05/03 21:31:45;;;;;;;2.25;1.10;;;;;;;8.97;100.00;101232.38;10902702;26;20023;-19
2024/05/03 21:36:49;;;;;;;2.95;1.00;;;;;;;8.85;100.00;101230.16;10896732;26;20051;-20
2024/05/03 21:41:53;;;;;;;1.83;1.20;;;;;;;8.90;100.00;101243.47;10897261;26;20023;-21
2024/05/03 21:46:59;;;;;;;1.80;1.25;;;;;;;8.79;100.00;101239.34;10904345;26;20015;-20
2024/05/03 21:52:04;;;;;;;2.00;1.35;;;;;;;8.82;100.00;101238.75;10901543;26;20048;-19
2024/05/03 21:57:08;;;;;;;2.05;1.20;;;;;;;8.64;100.00;101251.13;10897596;26;20032;-20
2024/05/03 22:02:14;;;;;;;1.95;1.08;;;;;;;8.53;100.00;101251.56;10911426;26;20044;-19
2024/05/03 22:07:19;;;;;;;2.00;1.10;;;;;;;8.39;100.00;101257.66;10913936;26;20093;-19
2024/05/03 22:12:26;;;;;;;1.38;0.85;;;;;;;8.20;100.00;101264.88;10911860;26;20066;-20
2024/05/03 22:17:32;;;;;;;1.55;1.08;;;;;;;8.27;100.00;101261.84;10907398;26;20451;-20
2024/05/03 22:22:36;;;;;;;1.90;1.30;;;;;;;8.35;100.00;101253.19;10909251;26;22404;-20
2024/05/03 22:27:40;;;;;;;2.13;1.35;;;;;;;8.23;100.00;101258.94;10901174;26;20015;-17
2024/05/03 22:32:46;;;;;;;2.13;1.50;;;;;;;8.26;100.00;101260.25;10905095;26;25111;-17
2024/05/03 22:37:50;;;;;;;2.88;1.25;;;;;;;8.22;100.00;101261.91;10902715;26;20526;-17
2024/05/03 22:42:54;;;;;;;3.33;1.50;;;;;;;8.16;100.00;101264.66;10908186;26;20012;-17
2024/05/03 22:48:00;;;;;;;4.18;1.70;;;;;;;8.06;100.00;101278.16;10938224;26;20087;-15
2024/05/03 22:53:04;;;;;;;2.63;1.40;;;;;;;8.05;100.00;101271.22;10974875;26;20026;-17
2024/05/03 22:58:08;;;;;;;3.13;2.20;;;;;;;8.07;100.00;101276.28;10970972;26;20023;-17
2024/05/03 23:03:15;;;;;;;2.63;1.70;;;;;;;7.98;100.00;101268.13;10961871;26;20931;-15
2024/05/03 23:08:19;;;;;;;3.58;2.15;;;;;;;7.94;100.00;101272.44;10962661;26;20012;-17
2024/05/03 23:13:23;;;;;;;3.22;1.90;;;;;;;7.89;100.00;101283.22;10972520;26;21446;-15